Terminal Aerodrome Forecast
Issued by NWS Paducah, KY

Home | Current Version | Previous Version | Text Only | Print | Product List | Glossary On
Versions: 1 2 3 4 5 6 7 8 9 10 11 12 13 14 15 16 17 18 19 20
571
FTUS43 KPAH 171720
TAFEVV
TAF
KEVV 171720Z 1718/1818 22012KT P6SM SCT250
     FM180000 21005KT P6SM SCT100 BKN250
     FM180900 21003KT P6SM SCT050 BKN100
     FM181500 21007KT P6SM SCT030 BKN050=

USA.gov is the U.S. government's official web portal to all federal, state and local government web resources and services.